Time;durP1;ratioP1;P1;durP2;ratioP2;P2;SDS_P1;SDS_P2;PMS_P1;PMS_P2;Temp;Humidity;BMP_temperature;BMP_pressure;BME280_temperature;BME280_humidity;BME280_pressure;Samples;Min_cycle;Max_cycle;Signal;HPM_P1;HPM_P2
2021/07/09 00:01:44;;;;;;;4.15;2.10;;;;;;;;;;5054033;28;20421;-66
2021/07/09 00:04:11;;;;;;;2.70;1.90;;;;;;;;;;5053533;28;20414;-66
2021/07/09 00:06:38;;;;;;;3.13;1.95;;;;;;;;;;5053934;28;20049;-66
2021/07/09 00:09:05;;;;;;;3.20;2.22;;;;;;;;;;5053836;28;20048;-66
2021/07/09 00:11:34;;;;;;;3.08;2.10;;;;;;;;;;5053793;28;20052;-67
2021/07/09 00:14:01;;;;;;;3.15;1.98;;;;;;;;;;5053558;28;20049;-67
2021/07/09 00:16:28;;;;;;;4.93;2.30;;;;;;;;;;5053632;28;20048;-66
2021/07/09 00:18:54;;;;;;;3.10;2.20;;;;;;;;;;5053400;28;20057;-66
2021/07/09 00:21:20;;;;;;;3.03;2.15;;;;;;;;;;5053716;28;20048;-67
2021/07/09 00:23:47;;;;;;;3.42;2.40;;;;;;;;;;5053783;28;20500;-68
2021/07/09 00:26:14;;;;;;;3.00;2.10;;;;;;;;;;5053629;28;20049;-68
2021/07/09 00:28:42;;;;;;;4.22;2.00;;;;;;;;;;5053726;28;20044;-68
2021/07/09 00:31:08;;;;;;;2.58;1.73;;;;;;;;;;5053190;28;20045;-67
2021/07/09 00:33:35;;;;;;;3.38;1.95;;;;;;;;;;5053198;28;20413;-67
2021/07/09 00:36:02;;;;;;;3.67;2.00;;;;;;;;;;5053415;28;20424;-67
2021/07/09 00:38:28;;;;;;;2.67;1.90;;;;;;;;;;5053192;28;20409;-68
2021/07/09 00:40:55;;;;;;;4.43;2.20;;;;;;;;;;5053091;28;20063;-68
2021/07/09 00:43:22;;;;;;;3.55;2.10;;;;;;;;;;5053065;28;20053;-68
2021/07/09 00:45:50;;;;;;;4.78;2.00;;;;;;;;;;5053361;28;20098;-68
2021/07/09 00:48:16;;;;;;;3.10;2.05;;;;;;;;;;5053093;28;20493;-68
2021/07/09 00:50:43;;;;;;;3.30;1.77;;;;;;;;;;5053230;28;20051;-68
2021/07/09 00:53:10;;;;;;;3.65;2.13;;;;;;;;;;5053043;28;20049;-68
2021/07/09 00:55:37;;;;;;;2.97;1.80;;;;;;;;;;5052925;28;20056;-68
2021/07/09 00:58:04;;;;;;;3.17;2.17;;;;;;;;;;5052942;28;20055;-67
2021/07/09 01:00:31;;;;;;;3.00;1.73;;;;;;;;;;5052741;28;20057;-67
2021/07/09 01:02:59;;;;;;;2.15;1.50;;;;;;;;;;5053252;28;20052;-66
2021/07/09 01:05:26;;;;;;;2.58;1.52;;;;;;;;;;5052720;28;20045;-66
2021/07/09 01:07:52;;;;;;;2.50;1.67;;;;;;;;;;5052792;28;20132;-66
2021/07/09 01:10:20;;;;;;;1.45;1.02;;;;;;;;;;5052693;28;20060;-66
2021/07/09 01:12:47;;;;;;;2.65;1.13;;;;;;;;;;5052379;28;20041;-66
2021/07/09 01:15:16;;;;;;;2.05;1.05;;;;;;;;;;5052739;28;20469;-66
2021/07/09 01:17:43;;;;;;;1.17;0.90;;;;;;;;;;5052444;28;20053;-66
2021/07/09 01:20:13;;;;;;;2.58;0.80;;;;;;;;;;5052664;28;20049;-66
2021/07/09 01:22:42;;;;;;;3.38;0.75;;;;;;;;;;5052687;28;20421;-66
2021/07/09 01:25:11;;;;;;;0.80;0.57;;;;;;;;;;5057127;28;20474;-67
2021/07/09 01:27:39;;;;;;;1.52;0.70;;;;;;;;;;5068897;28;20496;-67
2021/07/09 01:30:08;;;;;;;1.25;0.43;;;;;;;;;;5052413;28;20395;-67
2021/07/09 01:32:34;;;;;;;1.02;0.45;;;;;;;;;;5052060;28;20053;-67
2021/07/09 01:35:01;;;;;;;0.38;0.25;;;;;;;;;;5052419;28;20049;-67
2021/07/09 01:37:28;;;;;;;0.20;0.20;;;;;;;;;;5052067;28;20393;-67
2021/07/09 01:39:54;;;;;;;0.82;0.35;;;;;;;;;;5051953;28;20053;-67
2021/07/09 01:42:22;;;;;;;0.43;0.30;;;;;;;;;;5051142;28;20045;-67
2021/07/09 01:44:49;;;;;;;0.28;0.10;;;;;;;;;;5052148;28;20051;-67
2021/07/09 01:47:15;;;;;;;0.73;0.30;;;;;;;;;;5052254;28;20057;-67
2021/07/09 01:49:53;;;;;;;1.50;0.32;;;;;;;;;;5051918;28;20049;-67
2021/07/09 01:52:19;;;;;;;1.42;0.20;;;;;;;;;;5051876;28;20045;-67
2021/07/09 01:54:46;;;;;;;0.63;0.13;;;;;;;;;;5051921;28;20056;-68
2021/07/09 01:57:13;;;;;;;0.47;0.10;;;;;;;;;;5051933;28;20063;-68
2021/07/09 01:59:41;;;;;;;0.57;0.20;;;;;;;;;;5052223;28;20370;-68
2021/07/09 02:02:09;;;;;;;0.50;0.20;;;;;;;;;;5051844;28;20508;-68
2021/07/09 02:04:44;;;;;;;1.08;0.30;;;;;;;;;;5052109;28;20041;-68
2021/07/09 02:07:10;;;;;;;0.35;0.15;;;;;;;;;;5051537;28;20512;-68
2021/07/09 02:09:37;;;;;;;1.23;0.20;;;;;;;;;;5051990;28;20466;-68
2021/07/09 02:12:05;;;;;;;1.00;0.28;;;;;;;;;;5051568;28;20048;-68
2021/07/09 02:14:31;;;;;;;2.28;0.10;;;;;;;;;;5051591;28;20040;-69
2021/07/09 02:16:59;;;;;;;0.88;0.10;;;;;;;;;;5051404;28;20053;-68
2021/07/09 02:19:26;;;;;;;0.57;0.10;;;;;;;;;;5051632;28;20053;-68
2021/07/09 02:21:54;;;;;;;1.20;0.20;;;;;;;;;;5051633;28;20052;-69
2021/07/09 02:24:20;;;;;;;0.30;0.30;;;;;;;;;;5051709;28;20397;-69
2021/07/09 02:26:47;;;;;;;1.50;0.30;;;;;;;;;;5051867;28;20128;-69
2021/07/09 02:29:13;;;;;;;3.63;0.30;;;;;;;;;;5051451;28;20060;-69
2021/07/09 02:31:40;;;;;;;4.40;0.25;;;;;;;;;;5051712;28;20052;-69
2021/07/09 02:34:07;;;;;;;1.00;0.40;;;;;;;;;;5051214;28;20049;-69
2021/07/09 02:36:34;;;;;;;0.20;0.10;;;;;;;;;;5051476;28;20049;-69
2021/07/09 02:39:00;;;;;;;3.00;0.20;;;;;;;;;;5051557;28;20398;-69
2021/07/09 02:41:27;;;;;;;4.40;0.20;;;;;;;;;;5051635;28;20053;-69
2021/07/09 02:43:53;;;;;;;1.50;0.20;;;;;;;;;;5051518;28;20491;-69
2021/07/09 02:46:20;;;;;;;0.10;0.10;;;;;;;;;;5051636;28;20481;-70
2021/07/09 02:48:46;;;;;;;2.00;0.30;;;;;;;;;;5051470;28;20049;-70
2021/07/09 02:51:14;;;;;;;3.05;0.30;;;;;;;;;;5051519;28;20055;-70
2021/07/09 02:53:40;;;;;;;0.57;0.20;;;;;;;;;;5054321;28;20045;-70
2021/07/09 02:56:07;;;;;;;0.47;0.10;;;;;;;;;;5055227;28;20052;-70
2021/07/09 02:58:33;;;;;;;2.22;0.60;;;;;;;;;;5055062;28;20052;-70
2021/07/09 03:01:00;;;;;;;0.98;0.25;;;;;;;;;;5054998;28;20057;-70
2021/07/09 03:03:26;;;;;;;3.50;0.32;;;;;;;;;;5054856;28;20056;-70
2021/07/09 03:05:52;;;;;;;0.32;0.20;;;;;;;;;;5055381;28;20049;-70
2021/07/09 03:08:20;;;;;;;2.03;0.38;;;;;;;;;;5054931;28;20059;-70
2021/07/09 03:10:47;;;;;;;2.13;0.30;;;;;;;;;;5054792;28;20045;-70
2021/07/09 03:13:13;;;;;;;2.30;0.47;;;;;;;;;;5054585;28;20049;-70
2021/07/09 03:15:40;;;;;;;0.73;0.40;;;;;;;;;;5054662;28;20049;-70
2021/07/09 03:18:06;;;;;;;0.70;0.52;;;;;;;;;;5055126;28;20385;-70
2021/07/09 03:20:33;;;;;;;1.17;0.77;;;;;;;;;;5054583;28;20049;-70
2021/07/09 03:22:59;;;;;;;1.48;0.80;;;;;;;;;;5054838;28;20724;-70
2021/07/09 03:25:27;;;;;;;1.95;0.80;;;;;;;;;;5054587;28;20052;-70
2021/07/09 03:27:54;;;;;;;1.52;0.70;;;;;;;;;;5054968;28;20059;-70
2021/07/09 03:30:20;;;;;;;2.88;0.77;;;;;;;;;;5054457;28;20064;-69
2021/07/09 03:32:47;;;;;;;2.50;1.00;;;;;;;;;;5054707;28;20060;-70
2021/07/09 03:35:14;;;;;;;4.40;1.25;;;;;;;;;;5054530;28;20099;-70
2021/07/09 03:37:40;;;;;;;2.33;1.02;;;;;;;;;;5054356;28;20057;-69
2021/07/09 03:40:08;;;;;;;4.80;1.30;;;;;;;;;;5054603;28;20045;-69
2021/07/09 03:42:36;;;;;;;2.45;1.23;;;;;;;;;;5054931;28;20049;-70
2021/07/09 03:45:03;;;;;;;5.60;1.63;;;;;;;;;;5054721;28;20045;-70
2021/07/09 03:47:30;;;;;;;3.22;1.33;;;;;;;;;;5054888;28;20060;-70
2021/07/09 03:49:56;;;;;;;4.32;1.63;;;;;;;;;;5055076;28;20052;-69
2021/07/09 03:52:23;;;;;;;3.28;1.60;;;;;;;;;;5054538;28;20482;-69
2021/07/09 03:54:49;;;;;;;3.85;1.63;;;;;;;;;;5054423;28;20397;-69
2021/07/09 03:57:16;;;;;;;4.03;1.90;;;;;;;;;;5054440;28;20049;-69
2021/07/09 03:59:43;;;;;;;26.88;3.33;;;;;;;;;;5054235;28;20068;-69
2021/07/09 04:02:10;;;;;;;4.75;2.25;;;;;;;;;;5054819;28;20053;-68
2021/07/09 04:04:36;;;;;;;5.47;1.85;;;;;;;;;;5054036;28;20045;-70
2021/07/09 04:07:03;;;;;;;3.40;2.10;;;;;;;;;;5054417;28;20064;-69
2021/07/09 04:09:29;;;;;;;3.42;1.63;;;;;;;;;;5054650;28;20061;-69
2021/07/09 04:11:56;;;;;;;4.30;1.92;;;;;;;;;;5054451;28;20049;-70
2021/07/09 04:14:22;;;;;;;4.85;2.00;;;;;;;;;;5054495;28;20766;-70
2021/07/09 04:16:50;;;;;;;6.20;1.90;;;;;;;;;;5054576;28;20049;-70
2021/07/09 04:19:16;;;;;;;4.50;2.47;;;;;;;;;;5054166;28;20057;-70
2021/07/09 04:21:43;;;;;;;5.97;2.38;;;;;;;;;;5054173;28;20060;-71
2021/07/09 04:24:09;;;;;;;5.68;2.33;;;;;;;;;;5054071;28;20049;-70
2021/07/09 04:26:36;;;;;;;4.38;2.00;;;;;;;;;;5053781;28;20053;-70
2021/07/09 04:29:03;;;;;;;3.35;2.00;;;;;;;;;;5053591;28;20374;-70
2021/07/09 04:31:29;;;;;;;4.10;1.90;;;;;;;;;;5053739;28;20056;-70
2021/07/09 04:33:57;;;;;;;4.03;1.88;;;;;;;;;;5053308;28;20060;-70
2021/07/09 04:36:24;;;;;;;3.17;2.20;;;;;;;;;;5053228;28;20049;-71
2021/07/09 04:38:50;;;;;;;2.97;1.75;;;;;;;;;;5053289;28;20478;-71
2021/07/09 04:41:16;;;;;;;2.90;1.60;;;;;;;;;;5053262;28;20405;-70
2021/07/09 04:43:43;;;;;;;2.72;1.75;;;;;;;;;;5053329;28;20045;-71
2021/07/09 04:46:09;;;;;;;3.60;1.70;;;;;;;;;;5053394;28;20505;-70
2021/07/09 04:48:36;;;;;;;2.63;1.60;;;;;;;;;;5053044;28;20053;-70
2021/07/09 04:51:04;;;;;;;3.08;1.70;;;;;;;;;;5053108;28;20057;-70
2021/07/09 04:53:31;;;;;;;2.58;1.67;;;;;;;;;;5052752;28;20049;-70
2021/07/09 04:55:58;;;;;;;2.67;1.77;;;;;;;;;;5052972;28;20498;-70
2021/07/09 04:58:24;;;;;;;2.58;1.60;;;;;;;;;;5052766;28;20170;-70
2021/07/09 05:00:51;;;;;;;4.10;1.67;;;;;;;;;;5052984;28;20045;-70
2021/07/09 05:03:17;;;;;;;2.45;1.60;;;;;;;;;;5052926;28;20048;-70
2021/07/09 05:05:44;;;;;;;2.30;1.48;;;;;;;;;;5053091;28;20375;-70
2021/07/09 05:08:11;;;;;;;2.30;1.45;;;;;;;;;;5052489;28;20061;-70
2021/07/09 05:10:38;;;;;;;2.22;1.63;;;;;;;;;;5052790;28;20071;-70
2021/07/09 05:13:05;;;;;;;2.20;1.40;;;;;;;;;;5052640;28;20371;-70
2021/07/09 05:15:32;;;;;;;2.90;1.60;;;;;;;;;;5051769;28;20045;-70
2021/07/09 05:17:58;;;;;;;3.83;1.50;;;;;;;;;;5052402;28;20045;-70
2021/07/09 05:20:25;;;;;;;4.55;1.85;;;;;;;;;;5052601;28;20068;-70
2021/07/09 05:22:51;;;;;;;2.63;1.70;;;;;;;;;;5052153;28;20049;-70
2021/07/09 05:25:19;;;;;;;2.65;1.52;;;;;;;;;;5052564;28;20051;-70
2021/07/09 05:27:46;;;;;;;3.33;1.48;;;;;;;;;;5052312;28;20372;-70
2021/07/09 05:30:14;;;;;;;2.30;1.67;;;;;;;;;;5052666;28;20366;-70
2021/07/09 05:32:43;;;;;;;2.65;1.65;;;;;;;;;;5052300;28;20053;-71
2021/07/09 05:35:10;;;;;;;3.47;1.73;;;;;;;;;;5052081;28;20045;-71
2021/07/09 05:37:37;;;;;;;2.13;1.30;;;;;;;;;;5051862;28;20052;-70
2021/07/09 05:40:04;;;;;;;5.40;1.50;;;;;;;;;;5052131;28;20045;-70
2021/07/09 05:42:32;;;;;;;2.28;1.48;;;;;;;;;;5052228;28;20394;-70
2021/07/09 05:44:59;;;;;;;2.63;1.65;;;;;;;;;;5052248;28;20048;-70
2021/07/09 05:47:26;;;;;;;3.90;1.70;;;;;;;;;;5052396;28;20044;-70
2021/07/09 05:49:53;;;;;;;2.33;1.70;;;;;;;;;;5051794;28;20084;-70
2021/07/09 05:52:19;;;;;;;2.40;1.65;;;;;;;;;;5052102;28;20052;-70
2021/07/09 05:54:46;;;;;;;4.65;1.60;;;;;;;;;;5051905;28;20052;-70
2021/07/09 05:57:12;;;;;;;3.35;1.85;;;;;;;;;;5051893;28;20049;-70
2021/07/09 05:59:40;;;;;;;2.15;1.63;;;;;;;;;;5052018;28;20045;-70
2021/07/09 06:02:07;;;;;;;2.20;1.33;;;;;;;;;;5052017;28;20053;-70
2021/07/09 06:04:33;;;;;;;3.35;2.00;;;;;;;;;;5051570;28;20053;-70
2021/07/09 06:07:00;;;;;;;3.78;1.92;;;;;;;;;;5051866;28;20053;-71
2021/07/09 06:09:29;;;;;;;4.10;1.95;;;;;;;;;;5051647;28;20068;-70
2021/07/09 06:11:55;;;;;;;2.50;1.67;;;;;;;;;;5051692;28;20053;-70
2021/07/09 06:14:22;;;;;;;5.45;2.00;;;;;;;;;;5051473;28;20045;-71
2021/07/09 06:16:50;;;;;;;2.63;1.88;;;;;;;;;;5051781;28;20060;-70
2021/07/09 06:19:16;;;;;;;3.00;1.73;;;;;;;;;;5051356;28;20049;-70
2021/07/09 06:21:42;;;;;;;2.15;1.55;;;;;;;;;;5051806;28;20053;-70
2021/07/09 06:24:09;;;;;;;3.30;1.70;;;;;;;;;;5051497;28;20057;-70
2021/07/09 06:26:36;;;;;;;3.00;1.83;;;;;;;;;;5051573;28;20041;-70
2021/07/09 06:29:03;;;;;;;3.85;1.98;;;;;;;;;;5054970;28;20052;-70
2021/07/09 06:31:29;;;;;;;3.28;1.92;;;;;;;;;;5055663;28;20060;-70
2021/07/09 06:33:57;;;;;;;4.53;2.00;;;;;;;;;;5055522;28;20048;-70
2021/07/09 06:36:23;;;;;;;4.05;2.25;;;;;;;;;;5055783;28;20060;-70
2021/07/09 06:38:50;;;;;;;3.78;2.17;;;;;;;;;;5055436;28;20053;-70
2021/07/09 06:41:16;;;;;;;3.38;2.00;;;;;;;;;;5055454;28;20053;-70
2021/07/09 06:43:43;;;;;;;4.22;2.28;;;;;;;;;;5055611;28;20048;-70
2021/07/09 06:46:10;;;;;;;3.95;2.00;;;;;;;;;;5055662;28;20052;-71
2021/07/09 06:48:36;;;;;;;3.38;2.35;;;;;;;;;;5055470;28;20162;-71
2021/07/09 06:51:04;;;;;;;3.92;2.13;;;;;;;;;;5055650;28;20404;-71
2021/07/09 06:53:30;;;;;;;5.20;3.17;;;;;;;;;;5055163;28;20513;-71
2021/07/09 06:55:57;;;;;;;4.90;2.50;;;;;;;;;;5055059;28;20056;-71
2021/07/09 06:58:23;;;;;;;3.75;2.33;;;;;;;;;;5055001;28;20053;-71
2021/07/09 07:00:50;;;;;;;3.75;2.70;;;;;;;;;;5062811;28;20052;-71
2021/07/09 07:03:16;;;;;;;6.43;2.60;;;;;;;;;;5074228;28;20083;-70
2021/07/09 07:05:43;;;;;;;3.60;2.33;;;;;;;;;;5071345;28;20148;-70
2021/07/09 07:08:15;;;;;;;3.55;2.50;;;;;;;;;;5054941;28;20405;-70
2021/07/09 07:10:41;;;;;;;3.28;2.30;;;;;;;;;;5055082;28;20143;-70
2021/07/09 07:13:08;;;;;;;4.25;2.53;;;;;;;;;;5054899;28;20056;-70
2021/07/09 07:15:34;;;;;;;3.42;2.53;;;;;;;;;;5054821;28;20055;-70
2021/07/09 07:18:02;;;;;;;4.05;2.78;;;;;;;;;;5054675;28;20060;-70
2021/07/09 07:20:29;;;;;;;4.63;2.88;;;;;;;;;;5055051;28;20539;-70
2021/07/09 07:22:55;;;;;;;5.32;2.90;;;;;;;;;;5054538;28;20056;-70
2021/07/09 07:25:23;;;;;;;4.45;2.92;;;;;;;;;;5054566;28;20067;-70
2021/07/09 07:27:49;;;;;;;4.13;2.30;;;;;;;;;;5054473;28;20064;-70
2021/07/09 07:30:16;;;;;;;3.30;2.30;;;;;;;;;;5054544;28;20055;-70
2021/07/09 07:32:46;;;;;;;3.70;2.10;;;;;;;;;;5054653;28;20059;-70
2021/07/09 07:35:13;;;;;;;3.65;2.38;;;;;;;;;;5054500;28;20405;-70
2021/07/09 07:37:39;;;;;;;3.22;2.10;;;;;;;;;;5054303;28;20060;-70
2021/07/09 07:40:07;;;;;;;3.25;2.47;;;;;;;;;;5053199;28;20055;-70
2021/07/09 07:42:35;;;;;;;6.45;2.47;;;;;;;;;;5054159;28;20454;-70
2021/07/09 07:45:03;;;;;;;4.25;2.70;;;;;;;;;;5054028;28;20045;-70
2021/07/09 07:47:30;;;;;;;5.25;2.75;;;;;;;;;;5054441;28;20053;-70
2021/07/09 07:49:57;;;;;;;5.38;2.90;;;;;;;;;;5054369;28;20052;-70
2021/07/09 07:52:23;;;;;;;4.90;2.55;;;;;;;;;;5054040;28;20397;-70
2021/07/09 07:54:50;;;;;;;3.70;2.40;;;;;;;;;;5053754;28;20059;-70
2021/07/09 07:57:16;;;;;;;3.70;2.30;;;;;;;;;;5053864;28;20056;-70
2021/07/09 07:59:45;;;;;;;5.75;2.78;;;;;;;;;;5054265;28;20045;-70
2021/07/09 08:02:12;;;;;;;3.92;2.42;;;;;;;;;;5053995;28;20095;-70
2021/07/09 08:04:38;;;;;;;3.78;2.38;;;;;;;;;;5054237;28;20052;-70
2021/07/09 08:07:05;;;;;;;4.00;2.60;;;;;;;;;;5054048;28;20065;-70
2021/07/09 08:09:32;;;;;;;4.65;3.25;;;;;;;;;;5066389;28;20508;-70
2021/07/09 08:11:58;;;;;;;3.78;2.78;;;;;;;;;;5072745;28;20075;-70
2021/07/09 08:14:25;;;;;;;4.88;2.83;;;;;;;;;;5072402;28;20056;-70
2021/07/09 08:16:53;;;;;;;4.05;2.92;;;;;;;;;;5072837;28;20071;-70
2021/07/09 08:19:20;;;;;;;5.15;3.05;;;;;;;;;;5072345;28;20048;-70
2021/07/09 08:21:47;;;;;;;5.28;3.13;;;;;;;;;;5072420;28;20059;-70
2021/07/09 08:24:13;;;;;;;4.50;3.25;;;;;;;;;;5072430;28;20098;-70
2021/07/09 08:26:40;;;;;;;4.03;2.85;;;;;;;;;;5069975;28;20052;-70
2021/07/09 08:29:07;;;;;;;4.28;2.53;;;;;;;;;;5072488;28;20040;-70
2021/07/09 08:31:34;;;;;;;3.92;2.67;;;;;;;;;;5073253;28;20107;-70
2021/07/09 08:34:02;;;;;;;4.70;3.22;;;;;;;;;;5070533;28;20481;-69
2021/07/09 08:36:28;;;;;;;4.85;3.35;;;;;;;;;;5073133;28;20547;-69
2021/07/09 08:38:55;;;;;;;3.67;2.40;;;;;;;;;;5073352;28;20718;-69
2021/07/09 08:41:22;;;;;;;4.18;3.15;;;;;;;;;;5073460;28;20405;-69
2021/07/09 08:43:50;;;;;;;5.43;3.00;;;;;;;;;;5073372;28;20393;-69
2021/07/09 08:46:17;;;;;;;4.95;2.38;;;;;;;;;;5073057;28;20048;-69
2021/07/09 08:48:44;;;;;;;6.63;2.75;;;;;;;;;;5073179;28;20055;-69
2021/07/09 08:51:12;;;;;;;3.95;3.00;;;;;;;;;;5072567;28;20048;-69
2021/07/09 08:53:39;;;;;;;5.45;3.10;;;;;;;;;;5072803;28;20059;-70
2021/07/09 08:56:07;;;;;;;4.30;2.80;;;;;;;;;;5072841;28;20071;-70
2021/07/09 08:58:33;;;;;;;4.95;3.50;;;;;;;;;;5072686;28;20048;-69
2021/07/09 09:01:00;;;;;;;5.75;3.58;;;;;;;;;;5072174;28;20424;-69
2021/07/09 09:03:28;;;;;;;5.63;3.15;;;;;;;;;;5072920;28;20389;-69
2021/07/09 09:06:00;;;;;;;7.38;4.95;;;;;;;;;;5072530;28;20044;-69
2021/07/09 09:08:30;;;;;;;6.82;3.25;;;;;;;;;;5072793;28;20052;-69
2021/07/09 09:10:58;;;;;;;4.75;3.35;;;;;;;;;;5072643;28;20048;-69
2021/07/09 09:13:26;;;;;;;5.57;3.20;;;;;;;;;;5072546;28;20122;-69
2021/07/09 09:16:01;;;;;;;4.88;2.63;;;;;;;;;;5072523;28;20055;-69
2021/07/09 09:18:30;;;;;;;4.40;2.75;;;;;;;;;;5072323;28;20052;-70
2021/07/09 09:20:59;;;;;;;6.55;3.03;;;;;;;;;;5072443;28;20056;-70
2021/07/09 09:23:28;;;;;;;4.70;3.58;;;;;;;;;;5071930;28;20067;-70
2021/07/09 09:25:55;;;;;;;4.28;3.33;;;;;;;;;;5071169;28;20052;-70
2021/07/09 09:28:22;;;;;;;4.05;3.15;;;;;;;;;;5071954;28;20059;-70
2021/07/09 09:30:51;;;;;;;5.20;3.53;;;;;;;;;;5071416;28;20056;-70
2021/07/09 09:33:18;;;;;;;4.90;3.03;;;;;;;;;;5071610;28;20105;-70
2021/07/09 09:35:47;;;;;;;5.75;3.63;;;;;;;;;;5068394;28;20042;-70
2021/07/09 09:38:17;;;;;;;5.32;4.25;;;;;;;;;;5071478;28;20044;-70
2021/07/09 09:40:46;;;;;;;7.05;4.00;;;;;;;;;;5071370;28;20044;-70
2021/07/09 09:43:14;;;;;;;6.10;3.55;;;;;;;;;;5071814;28;20497;-71
2021/07/09 09:45:41;;;;;;;5.47;3.75;;;;;;;;;;5071699;28;20036;-70
2021/07/09 09:48:09;;;;;;;5.28;4.10;;;;;;;;;;5071679;28;20048;-70
2021/07/09 09:50:46;;;;;;;5.90;4.13;;;;;;;;;;5071641;28;20044;-71
2021/07/09 09:53:13;;;;;;;6.57;4.05;;;;;;;;;;5069336;28;20058;-71
2021/07/09 09:55:40;;;;;;;6.65;4.45;;;;;;;;;;5071559;28;20485;-71
2021/07/09 09:58:14;;;;;;;8.38;4.20;;;;;;;;;;5071645;28;20495;-71
2021/07/09 10:00:41;;;;;;;5.50;4.10;;;;;;;;;;5072071;28;20074;-71
2021/07/09 10:03:09;;;;;;;4.03;2.92;;;;;;;;;;5071188;28;20049;-70
2021/07/09 10:05:38;;;;;;;4.80;3.60;;;;;;;;;;5071828;28;20528;-70
2021/07/09 10:08:10;;;;;;;8.27;3.92;;;;;;;;;;5072167;28;20056;-70
2021/07/09 10:10:37;;;;;;;5.30;4.30;;;;;;;;;;5071723;28;20056;-70
2021/07/09 10:13:04;;;;;;;6.93;4.88;;;;;;;;;;5071898;28;20052;-70
2021/07/09 10:15:32;;;;;;;5.68;4.47;;;;;;;;;;5071847;28;20052;-70
2021/07/09 10:17:59;;;;;;;6.72;4.70;;;;;;;;;;5071703;28;20048;-70
2021/07/09 10:20:26;;;;;;;5.68;4.00;;;;;;;;;;5071811;28;20067;-70
2021/07/09 10:22:53;;;;;;;7.13;5.38;;;;;;;;;;5071675;28;20049;-70
2021/07/09 10:25:22;;;;;;;7.63;4.93;;;;;;;;;;5071725;28;20048;-70
2021/07/09 10:27:49;;;;;;;7.95;4.45;;;;;;;;;;5071694;28;20048;-70
2021/07/09 10:30:16;;;;;;;6.22;4.47;;;;;;;;;;5071367;28;20055;-70
2021/07/09 10:32:46;;;;;;;5.53;4.10;;;;;;;;;;5071880;28;20044;-70
2021/07/09 10:35:33;;;;;;;8.05;5.10;;;;;;;;;;5071522;28;20454;-70
2021/07/09 10:38:08;;;;;;;7.00;4.75;;;;;;;;;;5071392;28;20135;-70
2021/07/09 10:40:34;;;;;;;7.57;5.05;;;;;;;;;;5071857;28;20149;-70
2021/07/09 10:43:02;;;;;;;6.00;4.72;;;;;;;;;;5071914;28;20052;-70
2021/07/09 10:45:29;;;;;;;5.70;3.97;;;;;;;;;;5071688;28;20385;-70
2021/07/09 10:48:09;;;;;;;8.38;4.65;;;;;;;;;;5071150;28;20147;-70
2021/07/09 10:50:40;;;;;;;5.25;4.22;;;;;;;;;;5071665;28;20520;-70
2021/07/09 10:53:19;;;;;;;8.43;4.30;;;;;;;;;;5071563;28;20044;-71
2021/07/09 10:55:48;;;;;;;8.02;4.28;;;;;;;;;;5071326;28;20101;-70
2021/07/09 10:58:19;;;;;;;5.75;4.25;;;;;;;;;;5071145;28;20049;-70
2021/07/09 11:00:47;;;;;;;4.80;4.00;;;;;;;;;;5071427;28;20055;-71
2021/07/09 11:03:25;;;;;;;6.05;5.45;;;;;;;;;;5071078;28;20098;-70
2021/07/09 11:05:58;;;;;;;9.98;5.68;;;;;;;;;;5071481;28;20045;-70
2021/07/09 11:08:37;;;;;;;8.85;6.13;;;;;;;;;;5071287;28;20053;-70
2021/07/09 11:11:06;;;;;;;7.05;6.18;;;;;;;;;;5071348;28;20167;-70
2021/07/09 11:13:50;;;;;;;7.50;4.80;;;;;;;;;;5071969;28;20052;-70
2021/07/09 11:16:25;;;;;;;6.35;4.55;;;;;;;;;;5074927;28;20053;-70
2021/07/09 11:18:55;;;;;;;8.63;5.95;;;;;;;;;;5074795;28;20497;-70
2021/07/09 11:21:53;;;;;;;8.02;6.35;;;;;;;;;;5074802;28;20048;-70
2021/07/09 11:24:21;;;;;;;12.23;6.35;;;;;;;;;;5074610;28;20048;-67
2021/07/09 11:26:50;;;;;;;5.57;4.45;;;;;;;;;;5074540;28;20052;-70
2021/07/09 11:29:31;;;;;;;6.68;4.43;;;;;;;;;;5074733;28;20429;-69
2021/07/09 11:31:59;;;;;;;8.43;5.40;;;;;;;;;;5074228;28;20397;-69
2021/07/09 11:34:28;;;;;;;7.03;5.25;;;;;;;;;;5073916;28;20068;-69
2021/07/09 11:36:56;;;;;;;7.93;5.30;;;;;;;;;;5074365;28;20037;-69
2021/07/09 11:39:24;;;;;;;6.68;4.50;;;;;;;;;;5073938;28;20401;-69
2021/07/09 11:41:56;;;;;;;6.30;4.63;;;;;;;;;;5071460;28;20125;-69
2021/07/09 11:44:24;;;;;;;5.65;4.63;;;;;;;;;;5074085;28;20902;-69
2021/07/09 11:46:53;;;;;;;5.93;4.88;;;;;;;;;;5071693;28;20043;-69
2021/07/09 11:49:20;;;;;;;5.60;4.18;;;;;;;;;;5074024;28;20400;-69
2021/07/09 11:51:50;;;;;;;6.13;5.20;;;;;;;;;;5073976;28;20072;-69
2021/07/09 11:54:22;;;;;;;6.72;4.60;;;;;;;;;;5073718;28;20194;-69
2021/07/09 11:56:52;;;;;;;6.38;4.85;;;;;;;;;;5073605;28;20099;-69
2021/07/09 11:59:20;;;;;;;7.25;5.57;;;;;;;;;;5073487;28;20051;-69
2021/07/09 12:02:00;;;;;;;8.48;5.13;;;;;;;;;;5073492;28;20055;-68
2021/07/09 12:04:30;;;;;;;8.50;5.65;;;;;;;;;;5073691;28;20055;-68
2021/07/09 12:07:29;;;;;;;8.52;5.13;;;;;;;;;;5073533;28;20044;-68
2021/07/09 12:09:58;;;;;;;19.27;6.05;;;;;;;;;;5071839;28;20786;-69
2021/07/09 12:12:26;;;;;;;8.80;5.15;;;;;;;;;;5073421;28;20121;-69
2021/07/09 12:14:54;;;;;;;8.57;5.57;;;;;;;;;;5073346;28;20051;-69
2021/07/09 12:17:22;;;;;;;6.68;5.45;;;;;;;;;;5073222;28;20044;-69
2021/07/09 12:20:09;;;;;;;6.05;5.13;;;;;;;;;;5073404;28;20047;-69
2021/07/09 12:22:38;;;;;;;6.47;4.75;;;;;;;;;;5071854;28;20481;-69
2021/07/09 12:25:07;;;;;;;7.40;5.60;;;;;;;;;;5072899;28;20040;-69
2021/07/09 12:27:35;;;;;;;7.43;5.78;;;;;;;;;;5073239;28;20076;-69
2021/07/09 12:30:05;;;;;;;6.15;5.25;;;;;;;;;;5073119;28;20048;-69
2021/07/09 12:32:32;;;;;;;5.15;4.45;;;;;;;;;;5072142;28;20048;-69
2021/07/09 12:35:04;;;;;;;7.43;5.72;;;;;;;;;;5073450;28;20059;-69
2021/07/09 12:37:31;;;;;;;6.38;4.72;;;;;;;;;;5073205;28;20048;-69
2021/07/09 12:40:10;;;;;;;7.82;4.60;;;;;;;;;;5072981;28;20052;-69
2021/07/09 12:42:38;;;;;;;5.95;5.30;;;;;;;;;;5073157;28;20060;-69
2021/07/09 12:45:06;;;;;;;5.53;4.80;;;;;;;;;;5073281;28;20508;-69
2021/07/09 12:47:32;;;;;;;6.47;4.43;;;;;;;;;;5073273;28;20044;-69
2021/07/09 12:50:13;;;;;;;6.40;4.75;;;;;;;;;;5073067;28;20044;-69
2021/07/09 12:52:39;;;;;;;4.90;3.97;;;;;;;;;;5073224;28;20044;-69
2021/07/09 12:55:06;;;;;;;7.00;5.22;;;;;;;;;;5072739;28;20045;-69
2021/07/09 12:57:34;;;;;;;6.05;5.22;;;;;;;;;;5072642;28;20049;-69
2021/07/09 13:00:01;;;;;;;5.38;4.82;;;;;;;;;;5073086;28;20408;-69
2021/07/09 13:02:28;;;;;;;7.88;4.78;;;;;;;;;;5073048;28;20052;-69
2021/07/09 13:04:54;;;;;;;9.15;5.00;;;;;;;;;;5072912;28;20106;-69
2021/07/09 13:07:22;;;;;;;5.88;4.35;;;;;;;;;;5072520;28;20044;-68
2021/07/09 13:09:50;;;;;;;4.88;3.30;;;;;;;;;;5072846;28;20392;-69
2021/07/09 13:12:18;;;;;;;4.57;3.47;;;;;;;;;;5072779;28;20050;-69
2021/07/09 13:14:53;;;;;;;5.68;3.58;;;;;;;;;;5072474;28;20052;-69
2021/07/09 13:17:21;;;;;;;55.63;9.77;;;;;;;;;;5072679;28;20055;-69
2021/07/09 13:19:57;;;;;;;126.15;17.88;;;;;;;;;;5072370;28;20056;-69
2021/07/09 13:22:30;;;;;;;1216.97;152.68;;;;;;;;;;5072755;28;20091;-69
2021/07/09 13:25:08;;;;;;;254.25;32.50;;;;;;;;;;5072370;28;20052;-69
2021/07/09 13:27:35;;;;;;;5.53;3.53;;;;;;;;;;5072512;28;20040;-69
2021/07/09 13:30:06;;;;;;;4.07;3.45;;;;;;;;;;5072323;28;20139;-69
2021/07/09 13:32:33;;;;;;;6.93;3.20;;;;;;;;;;5072049;28;20048;-69
2021/07/09 13:34:59;;;;;;;7.20;4.20;;;;;;;;;;5072090;28;20049;-69
2021/07/09 13:37:26;;;;;;;5.10;4.60;;;;;;;;;;5071185;28;20055;-69
2021/07/09 13:39:52;;;;;;;4.13;3.00;;;;;;;;;;5071528;28;20048;-69
2021/07/09 13:42:18;;;;;;;4.63;3.78;;;;;;;;;;5071611;28;20048;-69
2021/07/09 13:44:45;;;;;;;6.90;3.92;;;;;;;;;;5071587;28;20556;-69
2021/07/09 13:47:13;;;;;;;7.53;4.32;;;;;;;;;;5071680;28;20041;-69
2021/07/09 13:49:39;;;;;;;4.20;3.67;;;;;;;;;;5071845;28;20135;-69
2021/07/09 13:52:06;;;;;;;4.65;3.38;;;;;;;;;;5071661;28;20401;-69
2021/07/09 13:54:32;;;;;;;4.30;3.67;;;;;;;;;;5068798;28;20044;-69
2021/07/09 13:56:59;;;;;;;4.32;3.28;;;;;;;;;;5071184;28;20055;-69
2021/07/09 13:59:25;;;;;;;6.28;3.30;;;;;;;;;;5071369;28;20409;-69
2021/07/09 14:01:54;;;;;;;5.13;3.70;;;;;;;;;;5071502;28;20378;-69
2021/07/09 14:04:21;;;;;;;6.50;3.25;;;;;;;;;;5071604;28;20052;-68
2021/07/09 14:06:48;;;;;;;3.53;2.70;;;;;;;;;;5071714;28;20052;-68
2021/07/09 14:09:15;;;;;;;5.20;2.72;;;;;;;;;;5071385;28;20056;-69
2021/07/09 14:11:41;;;;;;;3.45;2.65;;;;;;;;;;5071740;28;20575;-69
2021/07/09 14:14:08;;;;;;;3.50;2.60;;;;;;;;;;5071266;28;20048;-68
2021/07/09 14:16:35;;;;;;;6.80;3.83;;;;;;;;;;5071347;28;20051;-69
2021/07/09 14:19:02;;;;;;;3.10;2.30;;;;;;;;;;5071401;28;20477;-68
2021/07/09 14:21:30;;;;;;;3.85;3.17;;;;;;;;;;5071260;28;20044;-68
2021/07/09 14:23:57;;;;;;;6.00;2.90;;;;;;;;;;5071402;28;20049;-68
2021/07/09 14:26:23;;;;;;;4.63;3.50;;;;;;;;;;5071160;28;20084;-68
2021/07/09 14:28:50;;;;;;;4.40;3.10;;;;;;;;;;5070813;28;20044;-68
2021/07/09 14:31:16;;;;;;;3.45;2.90;;;;;;;;;;5071326;28;20041;-68
2021/07/09 14:33:43;;;;;;;3.53;3.15;;;;;;;;;;5070909;28;20045;-68
2021/07/09 14:36:09;;;;;;;4.20;2.90;;;;;;;;;;5071699;28;20056;-68
2021/07/09 14:38:37;;;;;;;3.83;3.38;;;;;;;;;;5071509;28;20055;-68
2021/07/09 14:41:04;;;;;;;5.57;3.80;;;;;;;;;;5071408;28;20477;-68
2021/07/09 14:43:30;;;;;;;4.50;3.28;;;;;;;;;;5071250;28;20072;-68
2021/07/09 14:45:57;;;;;;;4.75;2.95;;;;;;;;;;5071767;28;20052;-68
2021/07/09 14:48:23;;;;;;;6.10;3.20;;;;;;;;;;5072083;28;20599;-68